Girard, GA (30426)

3:30 AM EST on February 09, 2016 (GMT -0500)
Waynesboro, GA | | Change Station
CLOSE
Current Station
Personal Weather Station
Location: Waynesboro, GA
Elevation: 299 ft
Nearby Weather Stations
Active Advisory: Lake Wind Advisory

Elev 299 ft 33.07 °N, 81.99 °W | Updated 10 minutes ago

Clear
Clear
37.8 °F
Feels Like 34 °F
N
5.3
Wind Variable Wind from NW

Today
High -- | Low -- °F
--% Chance of Precip.
Yesterday
High -- | Low -- °F
Precip. -- in
Pressure 29.80 in
Visibility 10.0 miles
Clouds Clear
Windchill 34 °F
Dew Point 26 °F
Humidity 61%
Rainfall 0.00 in
Snow Depth Not available.
7:16 AM 6:06 PM
New Moon, 1% visible
METAR KAGS 090753Z AUTO 30013KT 10SM CLR 04/M06 A2979 RMK AO2 PK WND 31030/0714 SLP089 T00391056
Pressure 29.80 in
Visibility 10.0 miles
Clouds Clear
Windchill 34 °F
Dew Point 26 °F
Humidity 61%
Rainfall 0.00 in
Snow Depth Not available.
7:16 AM 6:06 PM
New Moon, 1% visible
METAR KAGS 090753Z AUTO 30013KT 10SM CLR 04/M06 A2979 RMK AO2 PK WND 31030/0714 SLP089 T00391056

10-Day Weather Forecast

Almanac

Astronomy

Feb. 09, 2016 Rise Set
Actual Time
Civil Twilight
Nautical Twilight
Astronomical Twilight
Moon
Length of Visible Light
Length of Day
Tomorrow will be .
, % of the Moon is Illuminated

Today's Extremes

State Highs State Lows

Community

WunderPhotos

Upload Photos

1,891,571 photos uploaded!

WunderBlog® & News

Nearby

Air Quality

  Air Quality AQ Index Pollutant
Not available.

Snow Depth

Station Depth Elevation

Earthquake Activity

City Distance Mag. Time & Date
Minimum magnitude displayed is 2.5.

Coastal Water Temperatures

Place Temperature

Stations

Nearby Weather Stations

Station Location Temp. Windchill Dew Point Humidity Wind Precip. Elev Updated Type
                   

Watches & Warnings

Lake Wind Advisory
Issued: 2:11 AM EST Feb. 9, 2016 – National Weather Service

... Lake Wind Advisory in effect until 11 PM EST Wednesday...

The National Weather Service in Columbia has issued a lake Wind
Advisory... which is in effect until 11 PM EST Wednesday.

* Timing... today through Wednesday evening.

* Winds... west 20 to 30 knots.

* Impacts... strong winds and rough chop will create hazardous
conditions for small craft and personal watercraft.

Precautionary/preparedness actions...

A lake Wind Advisory indicates that winds will cause rough chop
on area lakes. Small boats will be especially prone to capsizing.